createdAt,value
2024-03-13T00:00:59.615Z,467.00
2024-03-13T00:01:59.784Z,470.00
2024-03-13T00:03:00.030Z,470.00
2024-03-13T00:04:00.025Z,469.00
2024-03-13T00:05:00.085Z,469.00
2024-03-13T00:06:00.260Z,472.00
2024-03-13T00:07:00.378Z,473.00
2024-03-13T00:08:00.464Z,469.00
2024-03-13T00:09:00.612Z,465.00
2024-03-13T00:10:00.793Z,466.00
2024-03-13T00:11:01.031Z,467.00
2024-03-13T00:12:01.017Z,471.00
2024-03-13T00:13:01.184Z,469.00
2024-03-13T00:14:01.285Z,470.00
2024-03-13T00:15:01.434Z,470.00
2024-03-13T00:16:01.659Z,472.00
2024-03-13T00:17:01.698Z,469.00
2024-03-13T00:18:01.938Z,467.00
2024-03-13T00:19:02.097Z,464.00
2024-03-13T00:20:02.304Z,467.00
2024-03-13T00:21:02.406Z,468.00
2024-03-13T00:22:02.604Z,471.00
2024-03-13T00:23:02.738Z,469.00
2024-03-13T00:24:02.921Z,466.00
2024-03-13T00:25:03.088Z,471.00
2024-03-13T00:26:03.218Z,472.00
2024-03-13T00:27:03.371Z,474.00
2024-03-13T00:28:03.632Z,475.00
2024-03-13T00:29:03.735Z,485.00
2024-03-13T00:30:03.954Z,481.00
2024-03-13T00:31:04.090Z,486.00
2024-03-13T00:32:04.227Z,488.00
2024-03-13T00:33:04.442Z,489.00
2024-03-13T00:34:04.563Z,486.00
2024-03-13T00:35:04.727Z,483.00
2024-03-13T00:36:04.856Z,481.00
2024-03-13T00:37:05.110Z,478.00
2024-03-13T00:38:05.335Z,476.00
2024-03-13T00:39:05.350Z,474.00
2024-03-13T00:40:05.603Z,475.00
2024-03-13T00:41:05.670Z,477.00
2024-03-13T00:42:05.802Z,475.00
2024-03-13T00:43:05.905Z,471.00
2024-03-13T00:44:05.991Z,470.00
2024-03-13T00:45:06.059Z,474.00
2024-03-13T00:46:06.252Z,475.00
2024-03-13T00:47:06.336Z,476.00
2024-03-13T00:48:06.371Z,476.00
2024-03-13T00:49:06.488Z,473.00
2024-03-13T00:50:06.566Z,478.00
2024-03-13T00:51:06.680Z,478.00
2024-03-13T00:52:06.890Z,480.00
2024-03-13T00:53:06.875Z,480.00
2024-03-13T00:54:06.983Z,478.00
2024-03-13T00:55:07.118Z,481.00
2024-03-13T00:56:07.198Z,479.00
2024-03-13T00:57:07.374Z,480.00
2024-03-13T00:58:07.467Z,481.00
2024-03-13T00:59:07.490Z,476.00
2024-03-13T01:00:07.599Z,477.00
2024-03-13T01:01:07.713Z,474.00
2024-03-13T01:02:07.817Z,471.00
2024-03-13T01:03:10.151Z,471.00
2024-03-13T01:04:07.993Z,467.00
2024-03-13T01:05:08.140Z,466.00
2024-03-13T01:06:08.216Z,470.00
2024-03-13T01:07:08.652Z,469.00
2024-03-13T01:08:08.375Z,466.00
2024-03-13T01:09:08.466Z,470.00
2024-03-13T01:10:08.641Z,475.00
2024-03-13T01:11:08.698Z,472.00
2024-03-13T01:12:08.773Z,473.00
2024-03-13T01:13:08.932Z,472.00
2024-03-13T01:14:09.012Z,472.00
2024-03-13T01:15:09.122Z,474.00
2024-03-13T01:16:09.169Z,475.00
2024-03-13T01:17:09.246Z,474.00
2024-03-13T01:18:09.395Z,473.00
2024-03-13T01:19:09.653Z,474.00
2024-03-13T01:20:09.610Z,477.00
2024-03-13T01:21:09.617Z,475.00
2024-03-13T01:22:09.770Z,477.00
2024-03-13T01:23:09.847Z,473.00
2024-03-13T01:24:09.986Z,470.00
2024-03-13T01:25:10.045Z,471.00
2024-03-13T01:26:10.097Z,471.00
2024-03-13T01:27:10.227Z,470.00
2024-03-13T01:28:10.502Z,470.00
2024-03-13T01:29:10.406Z,469.00
2024-03-13T01:30:10.504Z,470.00
2024-03-13T01:31:10.667Z,470.00
2024-03-13T01:32:10.703Z,468.00
2024-03-13T01:33:10.808Z,469.00
2024-03-13T01:34:10.890Z,469.00
2024-03-13T01:35:10.991Z,469.00
2024-03-13T01:36:11.085Z,468.00
2024-03-13T01:37:11.262Z,469.00
2024-03-13T01:38:11.397Z,472.00
2024-03-13T01:39:11.592Z,470.00
2024-03-13T01:40:11.783Z,471.00
2024-03-13T01:41:11.791Z,466.00
2024-03-13T01:42:11.951Z,470.00
2024-03-13T01:43:12.061Z,472.00
2024-03-13T01:44:12.165Z,473.00
2024-03-13T01:45:12.306Z,477.00
2024-03-13T01:46:12.534Z,473.00
2024-03-13T01:47:12.603Z,473.00
2024-03-13T01:48:12.713Z,473.00
2024-03-13T01:49:12.865Z,469.00
2024-03-13T01:50:12.992Z,470.00
2024-03-13T01:51:13.088Z,467.00
2024-03-13T01:52:13.311Z,470.00
2024-03-13T01:53:13.370Z,468.00
2024-03-13T01:54:13.555Z,475.00
2024-03-13T01:55:13.700Z,482.00
2024-03-13T01:56:13.832Z,482.00
2024-03-13T01:57:14.020Z,484.00
2024-03-13T01:58:14.191Z,486.00
2024-03-13T01:59:14.338Z,483.00
2024-03-13T02:00:14.473Z,489.00
2024-03-13T02:01:14.765Z,486.00
2024-03-13T02:02:14.755Z,488.00
2024-03-13T02:03:14.833Z,490.00
2024-03-13T02:04:14.885Z,490.00
2024-03-13T02:05:15.072Z,490.00
2024-03-13T02:06:15.138Z,494.00
2024-03-13T02:07:15.316Z,489.00
2024-03-13T02:08:15.453Z,493.00
2024-03-13T02:09:15.548Z,494.00
2024-03-13T02:10:15.802Z,495.00
2024-03-13T02:11:15.892Z,493.00
2024-03-13T02:12:15.986Z,495.00
2024-03-13T02:13:16.206Z,491.00
2024-03-13T02:14:16.322Z,491.00
2024-03-13T02:15:16.516Z,491.00
2024-03-13T02:16:16.731Z,495.00
2024-03-13T02:17:16.795Z,493.00
2024-03-13T02:18:17.018Z,493.00
2024-03-13T02:19:17.155Z,492.00
2024-03-13T02:20:17.277Z,491.00
2024-03-13T02:21:17.455Z,489.00
2024-03-13T02:22:17.689Z,491.00
2024-03-13T02:23:17.765Z,489.00
2024-03-13T02:24:17.900Z,486.00
2024-03-13T02:25:18.127Z,486.00
2024-03-13T02:26:18.290Z,483.00
2024-03-13T02:27:18.340Z,475.00
2024-03-13T02:28:18.479Z,480.00
2024-03-13T02:29:18.528Z,481.00
2024-03-13T02:30:18.712Z,479.00
2024-03-13T02:31:18.878Z,482.00
2024-03-13T02:32:18.857Z,477.00
2024-03-13T02:33:19.044Z,480.00
2024-03-13T02:34:19.240Z,480.00
2024-03-13T02:35:19.373Z,483.00
2024-03-13T02:36:19.594Z,481.00
2024-03-13T02:37:19.794Z,481.00
2024-03-13T02:38:19.929Z,480.00
2024-03-13T02:39:20.233Z,481.00
2024-03-13T02:40:20.205Z,479.00
2024-03-13T02:41:20.370Z,476.00
2024-03-13T02:42:20.363Z,479.00
2024-03-13T02:43:20.677Z,475.00
2024-03-13T02:44:20.573Z,478.00
2024-03-13T02:45:20.704Z,479.00
2024-03-13T02:46:20.853Z,478.00
2024-03-13T02:47:20.899Z,483.00
2024-03-13T02:48:21.017Z,482.00
2024-03-13T02:49:21.194Z,482.00
2024-03-13T02:50:21.236Z,477.00
2024-03-13T02:51:21.337Z,476.00
2024-03-13T02:52:21.498Z,476.00
2024-03-13T02:53:21.575Z,477.00
2024-03-13T02:54:21.667Z,480.00
2024-03-13T02:55:21.863Z,481.00
2024-03-13T02:56:21.881Z,478.00
2024-03-13T02:57:21.982Z,478.00
2024-03-13T02:58:22.244Z,478.00
2024-03-13T02:59:22.206Z,477.00
2024-03-13T03:00:22.325Z,483.00
2024-03-13T03:01:22.536Z,481.00
2024-03-13T03:02:22.690Z,482.00
2024-03-13T03:03:22.717Z,485.00
2024-03-13T03:04:22.898Z,487.00
2024-03-13T03:05:22.993Z,491.00
2024-03-13T03:06:23.084Z,489.00
2024-03-13T03:07:23.347Z,493.00
2024-03-13T03:08:23.304Z,494.00
2024-03-13T03:09:23.510Z,494.00
2024-03-13T03:10:23.723Z,493.00
2024-03-13T03:11:23.740Z,499.00
2024-03-13T03:12:23.922Z,498.00
2024-03-13T03:13:24.103Z,495.00
2024-03-13T03:14:24.200Z,495.00
2024-03-13T03:15:24.383Z,492.00
2024-03-13T03:16:24.570Z,500.00
2024-03-13T03:17:24.735Z,491.00
2024-03-13T03:18:24.863Z,490.00
2024-03-13T03:19:25.107Z,494.00
2024-03-13T03:20:25.118Z,492.00
2024-03-13T03:21:25.221Z,496.00
2024-03-13T03:22:25.439Z,498.00
2024-03-13T03:23:25.449Z,496.00
2024-03-13T03:24:25.580Z,495.00
2024-03-13T03:25:26.158Z,496.00
2024-03-13T03:26:25.878Z,499.00
2024-03-13T03:27:25.953Z,500.00
2024-03-13T03:28:26.118Z,503.00
2024-03-13T03:29:26.146Z,498.00
2024-03-13T03:30:26.357Z,503.00
2024-03-13T03:31:26.520Z,503.00
2024-03-13T03:32:26.991Z,501.00
2024-03-13T03:33:26.812Z,502.00
2024-03-13T03:34:27.080Z,498.00
2024-03-13T03:35:27.250Z,491.00
2024-03-13T03:36:27.355Z,481.00
2024-03-13T03:37:27.560Z,484.00
2024-03-13T03:38:27.676Z,491.00
2024-03-13T03:39:27.725Z,489.00
2024-03-13T03:40:27.968Z,491.00
2024-03-13T03:41:27.954Z,492.00
2024-03-13T03:42:28.120Z,493.00
2024-03-13T03:43:28.342Z,494.00
2024-03-13T03:44:28.264Z,487.00
2024-03-13T03:45:28.440Z,486.00
2024-03-13T03:46:28.590Z,487.00
2024-03-13T03:47:28.710Z,488.00
2024-03-13T03:48:28.961Z,487.00
2024-03-13T03:49:28.920Z,489.00
2024-03-13T03:50:28.989Z,486.00
2024-03-13T03:51:29.091Z,491.00
2024-03-13T03:52:29.216Z,493.00
2024-03-13T03:53:29.359Z,490.00
2024-03-13T03:54:29.481Z,491.00
2024-03-13T03:55:29.632Z,493.00
2024-03-13T03:56:30.454Z,488.00
2024-03-13T03:57:29.910Z,491.00
2024-03-13T03:58:30.126Z,488.00
2024-03-13T03:59:30.166Z,487.00
2024-03-13T04:00:30.303Z,485.00
2024-03-13T04:01:30.516Z,491.00
2024-03-13T04:02:30.547Z,489.00
2024-03-13T04:03:30.609Z,488.00
2024-03-13T04:04:30.815Z,488.00
2024-03-13T04:05:30.873Z,497.00
2024-03-13T04:06:30.975Z,493.00
2024-03-13T04:07:31.144Z,492.00
2024-03-13T04:08:31.214Z,493.00
2024-03-13T04:09:31.339Z,494.00
2024-03-13T04:10:31.513Z,487.00
2024-03-13T04:11:31.561Z,485.00
2024-03-13T04:12:31.668Z,492.00
2024-03-13T04:13:32.910Z,496.00
2024-03-13T04:14:31.894Z,494.00
2024-03-13T04:15:32.071Z,493.00
2024-03-13T04:16:32.219Z,492.00
2024-03-13T04:17:32.269Z,491.00
2024-03-13T04:18:32.407Z,491.00
2024-03-13T04:19:32.520Z,492.00
2024-03-13T04:20:32.678Z,487.00
2024-03-13T04:21:32.738Z,488.00
2024-03-13T04:22:32.915Z,491.00
2024-03-13T04:23:32.956Z,493.00
2024-03-13T04:24:33.055Z,495.00
2024-03-13T04:25:33.254Z,491.00
2024-03-13T04:26:33.394Z,500.00
2024-03-13T04:27:33.546Z,500.00
2024-03-13T04:28:33.702Z,500.00
2024-03-13T04:29:39.076Z,497.00
2024-03-13T04:30:35.000Z,499.00
2024-03-13T04:31:34.048Z,505.00
2024-03-13T04:32:34.099Z,501.00
2024-03-13T04:33:34.198Z,497.00
2024-03-13T04:34:34.364Z,501.00
2024-03-13T04:35:34.423Z,491.00
2024-03-13T04:36:34.472Z,485.00
2024-03-13T04:37:34.622Z,486.00
2024-03-13T04:38:34.738Z,489.00
2024-03-13T04:39:34.815Z,489.00
2024-03-13T04:40:34.984Z,487.00
2024-03-13T04:41:34.976Z,491.00
2024-03-13T04:42:35.089Z,491.00
2024-03-13T04:43:35.224Z,488.00
2024-03-13T04:44:35.323Z,487.00
2024-03-13T04:45:35.422Z,490.00
2024-03-13T04:46:35.588Z,490.00
2024-03-13T04:47:39.549Z,489.00
2024-03-13T04:48:36.770Z,490.00
2024-03-13T04:49:35.924Z,491.00
2024-03-13T04:50:35.976Z,492.00
2024-03-13T04:51:36.106Z,492.00
2024-03-13T04:52:36.137Z,492.00
2024-03-13T04:53:36.282Z,487.00
2024-03-13T04:54:36.370Z,488.00
2024-03-13T04:55:36.510Z,485.00
2024-03-13T04:56:36.594Z,483.00
2024-03-13T04:57:36.656Z,487.00
2024-03-13T04:58:36.757Z,490.00
2024-03-13T04:59:36.872Z,488.00
2024-03-13T05:00:36.997Z,484.00
2024-03-13T05:01:37.151Z,479.00
2024-03-13T05:02:40.419Z,481.00
2024-03-13T05:03:48.829Z,466.00
2024-03-13T05:04:48.773Z,462.00
2024-03-13T05:05:48.816Z,465.00
2024-03-13T05:06:48.845Z,470.00
2024-03-13T05:07:48.807Z,478.00
2024-03-13T05:08:48.794Z,477.00
2024-03-13T05:09:48.856Z,474.00
2024-03-13T05:10:48.906Z,474.00
2024-03-13T05:11:48.784Z,475.00
2024-03-13T05:12:48.825Z,477.00
2024-03-13T05:13:48.846Z,477.00
2024-03-13T05:14:48.813Z,478.00
2024-03-13T05:15:49.378Z,479.00
2024-03-13T05:16:48.823Z,475.00
2024-03-13T05:17:48.988Z,481.00
2024-03-13T05:18:48.882Z,483.00
2024-03-13T05:19:48.856Z,482.00
2024-03-13T05:20:48.834Z,483.00
2024-03-13T05:21:48.923Z,483.00
2024-03-13T05:22:48.961Z,482.00
2024-03-13T05:23:48.860Z,482.00
2024-03-13T05:24:48.900Z,484.00
2024-03-13T05:25:51.800Z,480.00
2024-03-13T05:26:48.883Z,483.00
2024-03-13T05:27:48.918Z,483.00
2024-03-13T05:28:48.898Z,489.00
2024-03-13T05:29:48.919Z,490.00
2024-03-13T05:30:48.966Z,492.00
2024-03-13T05:31:48.961Z,490.00
2024-03-13T05:32:48.990Z,490.00
2024-03-13T05:33:48.916Z,490.00
2024-03-13T05:34:48.981Z,486.00
2024-03-13T05:35:48.952Z,483.00
2024-03-13T05:36:48.993Z,481.00
2024-03-13T05:37:48.963Z,473.00
2024-03-13T05:38:48.979Z,473.00
2024-03-13T05:39:49.032Z,471.00
2024-03-13T05:40:49.006Z,473.00
2024-03-13T05:41:49.002Z,474.00
2024-03-13T05:42:49.026Z,477.00
2024-03-13T05:43:49.001Z,477.00
2024-03-13T05:44:49.009Z,474.00
2024-03-13T05:45:49.041Z,478.00
2024-03-13T05:46:49.027Z,479.00
2024-03-13T05:47:49.058Z,478.00
2024-03-13T05:48:49.110Z,479.00
2024-03-13T05:49:49.067Z,482.00
2024-03-13T05:50:49.050Z,484.00
2024-03-13T05:51:49.342Z,482.00
2024-03-13T05:52:49.068Z,479.00
2024-03-13T05:53:49.066Z,474.00
2024-03-13T05:54:49.076Z,481.00
2024-03-13T05:55:49.091Z,473.00
2024-03-13T05:56:49.048Z,478.00
2024-03-13T05:57:49.137Z,478.00
2024-03-13T05:58:49.054Z,478.00
2024-03-13T05:59:49.076Z,477.00
2024-03-13T06:02:18.100Z,478.00
2024-03-13T06:02:56.190Z,482.00
2024-03-13T06:03:55.360Z,488.00
2024-03-13T06:04:55.362Z,507.00
2024-03-13T06:05:55.348Z,499.00
2024-03-13T06:06:55.442Z,494.00
2024-03-13T06:07:55.375Z,487.00
2024-03-13T06:08:55.362Z,486.00
2024-03-13T06:09:55.388Z,481.00
2024-03-13T06:10:55.571Z,477.00
2024-03-13T06:11:55.347Z,476.00
2024-03-13T06:12:55.385Z,469.00
2024-03-13T06:13:55.410Z,470.00
2024-03-13T06:14:55.462Z,465.00
2024-03-13T06:15:55.627Z,465.00
2024-03-13T06:16:55.627Z,461.00
2024-03-13T06:17:55.657Z,469.00
2024-03-13T06:18:55.721Z,465.00
2024-03-13T06:19:55.710Z,465.00
2024-03-13T06:20:55.809Z,463.00
2024-03-13T06:21:55.871Z,465.00
2024-03-13T06:22:55.876Z,463.00
2024-03-13T06:23:55.988Z,463.00
2024-03-13T06:24:56.110Z,462.00
2024-03-13T06:25:56.102Z,468.00
2024-03-13T06:26:56.156Z,478.00
2024-03-13T06:27:56.185Z,470.00
2024-03-13T06:28:56.228Z,466.00
2024-03-13T06:29:56.310Z,465.00
2024-03-13T06:30:56.645Z,465.00
2024-03-13T06:31:56.436Z,460.00
2024-03-13T06:32:57.089Z,455.00
2024-03-13T06:33:56.905Z,457.00
2024-03-13T06:34:56.572Z,462.00
2024-03-13T06:35:57.065Z,465.00
2024-03-13T06:36:56.783Z,463.00
2024-03-13T06:37:56.754Z,464.00
2024-03-13T06:38:56.817Z,461.00
2024-03-13T06:39:57.015Z,462.00
2024-03-13T06:40:57.026Z,467.00
2024-03-13T06:41:56.982Z,465.00
2024-03-13T06:42:57.027Z,474.00
2024-03-13T06:43:57.050Z,473.00
2024-03-13T06:44:57.056Z,466.00
2024-03-13T06:47:27.725Z,465.00
2024-03-13T06:48:02.491Z,465.00
2024-03-13T06:49:02.347Z,462.00
2024-03-13T06:50:02.425Z,459.00
2024-03-13T06:51:02.637Z,462.00
2024-03-13T06:52:02.472Z,460.00
2024-03-13T06:53:02.438Z,457.00
2024-03-13T06:54:02.345Z,458.00
2024-03-13T06:55:02.508Z,460.00
2024-03-13T06:56:02.678Z,458.00
2024-03-13T06:57:02.565Z,456.00
2024-03-13T06:58:03.162Z,459.00
2024-03-13T06:59:02.404Z,459.00
2024-03-13T07:00:02.412Z,462.00
2024-03-13T07:01:02.773Z,463.00
2024-03-13T07:02:02.533Z,463.00
2024-03-13T07:03:02.419Z,464.00
2024-03-13T07:04:02.440Z,467.00
2024-03-13T07:05:02.425Z,467.00
2024-03-13T07:06:02.427Z,465.00
2024-03-13T07:07:02.509Z,467.00
2024-03-13T07:08:02.437Z,462.00
2024-03-13T07:09:02.458Z,461.00
2024-03-13T07:10:02.498Z,458.00
2024-03-13T07:11:02.497Z,455.00
2024-03-13T07:12:02.568Z,449.00
2024-03-13T07:13:02.485Z,451.00
2024-03-13T07:14:02.578Z,448.00
2024-03-13T07:15:02.582Z,442.00
2024-03-13T07:16:02.677Z,454.00
2024-03-13T07:17:02.610Z,465.00
2024-03-13T07:18:04.210Z,465.00
2024-03-13T07:19:02.645Z,468.00
2024-03-13T07:20:02.638Z,466.00
2024-03-13T07:21:03.141Z,462.00
2024-03-13T07:22:03.464Z,462.00
2024-03-13T07:23:02.750Z,464.00
2024-03-13T07:24:02.751Z,465.00
2024-03-13T07:25:02.808Z,465.00
2024-03-13T07:26:03.172Z,458.00
2024-03-13T07:27:02.797Z,455.00
2024-03-13T07:28:02.930Z,455.00
2024-03-13T07:29:02.899Z,452.00
2024-03-13T07:30:02.997Z,447.00
2024-03-13T07:31:03.181Z,447.00
2024-03-13T07:32:03.074Z,450.00
2024-03-13T07:33:03.157Z,459.00
2024-03-13T07:34:03.241Z,457.00
2024-03-13T07:35:03.152Z,452.00
2024-03-13T07:36:03.649Z,453.00
2024-03-13T07:37:03.289Z,456.00
2024-03-13T07:38:03.356Z,457.00
2024-03-13T07:39:03.404Z,467.00
2024-03-13T07:40:05.198Z,452.00
2024-03-13T07:41:03.789Z,451.00
2024-03-13T07:42:03.497Z,447.00
2024-03-13T07:43:03.636Z,449.00
2024-03-13T07:44:03.596Z,452.00
2024-03-13T07:45:03.632Z,468.00
2024-03-13T07:46:04.199Z,464.00
2024-03-13T07:47:03.654Z,463.00
2024-03-13T07:48:03.765Z,458.00
2024-03-13T07:49:04.184Z,453.00
2024-03-13T07:50:03.705Z,453.00
2024-03-13T07:51:04.591Z,452.00
2024-03-13T07:52:04.054Z,448.00
2024-03-13T07:53:03.824Z,448.00
2024-03-13T07:54:03.902Z,452.00
2024-03-13T07:55:03.964Z,451.00
2024-03-13T07:56:04.210Z,452.00
2024-03-13T07:57:03.953Z,453.00
2024-03-13T07:58:04.095Z,449.00
2024-03-13T07:59:03.962Z,455.00
2024-03-13T08:00:03.942Z,457.00
2024-03-13T08:01:04.122Z,461.00
2024-03-13T08:02:04.149Z,456.00
2024-03-13T08:03:04.064Z,452.00
2024-03-13T08:04:04.126Z,459.00
2024-03-13T08:05:04.046Z,457.00
2024-03-13T09:06:02.600Z,454.00
2024-03-13T09:07:01.951Z,452.00
2024-03-13T09:08:02.002Z,449.00
2024-03-13T09:09:01.783Z,456.00
2024-03-13T09:10:01.688Z,445.00
2024-03-13T09:11:01.721Z,450.00
2024-03-13T09:12:01.749Z,447.00
2024-03-13T09:13:01.563Z,447.00
2024-03-13T09:14:01.550Z,443.00
2024-03-13T09:15:02.231Z,445.00
2024-03-13T09:16:01.433Z,458.00
2024-03-13T09:17:01.377Z,462.00
2024-03-13T09:18:01.484Z,464.00
2024-03-13T09:19:01.391Z,459.00
2024-03-13T09:20:01.193Z,452.00
2024-03-13T09:21:01.283Z,455.00
2024-03-13T09:22:02.024Z,453.00
2024-03-13T09:23:01.647Z,450.00
2024-03-13T09:24:01.044Z,450.00
2024-03-13T09:25:00.943Z,452.00
2024-03-13T09:26:00.918Z,452.00
2024-03-13T09:27:01.819Z,456.00
2024-03-13T09:28:00.823Z,454.00
2024-03-13T09:29:00.801Z,456.00
2024-03-13T09:30:00.903Z,486.00
2024-03-13T09:31:01.604Z,448.00
2024-03-13T09:32:01.151Z,464.00
2024-03-13T09:33:00.975Z,477.00
2024-03-13T09:34:00.865Z,467.00
2024-03-13T09:35:00.635Z,465.00
2024-03-13T09:36:00.721Z,458.00
2024-03-13T09:37:01.150Z,453.00
2024-03-13T09:38:00.590Z,477.00
2024-03-13T09:39:00.911Z,468.00
2024-03-13T09:40:00.593Z,461.00
2024-03-13T09:41:00.571Z,457.00
2024-03-13T09:42:00.713Z,457.00
2024-03-13T09:43:00.604Z,451.00
2024-03-13T09:44:00.690Z,448.00
2024-03-13T09:45:00.736Z,452.00
2024-03-13T09:46:00.482Z,447.00
2024-03-13T09:47:00.683Z,443.00
2024-03-13T09:48:00.545Z,446.00
2024-03-13T09:49:00.582Z,448.00
2024-03-13T09:50:00.416Z,453.00
2024-03-13T09:52:00.856Z,466.00
2024-03-13T09:53:00.208Z,461.00
2024-03-13T09:54:00.157Z,451.00
2024-03-13T09:54:59.979Z,460.00
2024-03-13T09:55:59.897Z,471.00
2024-03-13T09:57:00.368Z,456.00
2024-03-13T09:57:59.800Z,445.00
2024-03-13T09:58:59.711Z,450.00
2024-03-13T09:59:59.671Z,451.00
2024-03-13T10:00:59.611Z,490.00
2024-03-13T10:01:59.622Z,453.00
2024-03-13T10:02:59.472Z,458.00
2024-03-13T10:03:59.374Z,459.00
2024-03-13T10:04:59.264Z,452.00
2024-03-13T10:05:59.203Z,451.00
2024-03-13T10:06:59.449Z,450.00
2024-03-13T10:07:59.460Z,453.00
2024-03-13T10:08:59.002Z,460.00
2024-03-13T10:09:58.858Z,452.00
2024-03-13T10:10:59.073Z,455.00
2024-03-13T10:11:58.792Z,452.00
2024-03-13T10:12:58.737Z,450.00
2024-03-13T10:13:58.581Z,455.00
2024-03-13T10:14:58.513Z,455.00
2024-03-13T10:15:58.394Z,481.00
2024-03-13T10:17:00.652Z,454.00
2024-03-13T10:17:58.709Z,446.00
2024-03-13T10:18:58.184Z,440.00
2024-03-13T10:19:58.013Z,446.00
2024-03-13T10:20:57.938Z,470.00
2024-03-13T10:21:57.845Z,448.00
2024-03-13T10:22:57.652Z,446.00
2024-03-13T10:23:57.729Z,442.00
2024-03-13T10:24:57.530Z,450.00
2024-03-13T10:25:57.369Z,452.00
2024-03-13T10:26:57.257Z,443.00
2024-03-13T10:27:57.689Z,449.00
2024-03-13T10:28:57.076Z,445.00
2024-03-13T10:29:57.009Z,444.00
2024-03-13T10:30:56.945Z,444.00
2024-03-13T10:31:56.823Z,439.00
2024-03-13T10:32:56.845Z,443.00
2024-03-13T10:33:56.743Z,447.00
2024-03-13T10:34:59.112Z,451.00
2024-03-13T10:35:56.309Z,454.00
2024-03-13T10:37:05.116Z,454.00
2024-03-13T10:37:57.142Z,450.00
2024-03-13T10:38:56.038Z,451.00
2024-03-13T10:39:55.792Z,458.00
2024-03-13T10:40:56.683Z,460.00
2024-03-13T10:41:55.609Z,453.00
2024-03-13T10:42:55.668Z,455.00
2024-03-13T10:43:55.206Z,450.00
2024-03-13T10:44:55.197Z,445.00
2024-03-13T10:45:55.166Z,444.00
2024-03-13T10:46:55.624Z,464.00
2024-03-13T10:47:55.241Z,447.00
2024-03-13T10:48:54.693Z,441.00
2024-03-13T10:49:54.929Z,445.00
2024-03-13T10:50:55.539Z,458.00
2024-03-13T10:51:54.231Z,450.00
2024-03-13T10:52:54.682Z,452.00
2024-03-13T10:53:54.218Z,448.00
2024-03-13T10:54:54.080Z,448.00
2024-03-13T10:55:54.050Z,455.00
2024-03-13T10:56:54.006Z,467.00
2024-03-13T10:57:53.863Z,460.00
2024-03-13T10:58:53.791Z,441.00
2024-03-13T10:59:53.754Z,451.00
2024-03-13T11:00:53.698Z,456.00
2024-03-13T11:01:53.727Z,472.00
2024-03-13T11:02:53.745Z,453.00
2024-03-13T11:03:53.512Z,479.00
2024-03-13T11:04:53.397Z,471.00
2024-03-13T11:05:53.389Z,449.00
2024-03-13T11:06:53.360Z,438.00
2024-03-13T11:07:53.677Z,438.00
2024-03-13T11:08:54.153Z,462.00
2024-03-13T11:09:53.225Z,447.00
2024-03-13T11:11:06.300Z,456.00
2024-03-13T11:11:54.823Z,448.00
2024-03-13T11:12:53.387Z,453.00
2024-03-13T11:13:52.884Z,451.00
2024-03-13T11:14:52.750Z,453.00
2024-03-13T11:15:52.620Z,458.00
2024-03-13T11:16:52.530Z,448.00
2024-03-13T11:17:52.859Z,449.00
2024-03-13T11:18:52.562Z,451.00
2024-03-13T11:19:52.278Z,448.00
2024-03-13T11:20:52.180Z,444.00
2024-03-13T11:21:52.032Z,441.00
2024-03-13T11:22:52.180Z,446.00
2024-03-13T11:23:51.920Z,447.00
2024-03-13T11:24:51.877Z,443.00
2024-03-13T11:25:51.741Z,445.00
2024-03-13T11:26:51.549Z,447.00
2024-03-13T11:27:51.523Z,447.00
2024-03-13T11:28:51.794Z,447.00
2024-03-13T11:29:51.375Z,443.00
2024-03-13T11:30:51.147Z,429.00
2024-03-13T11:31:51.104Z,446.00
2024-03-13T11:32:51.026Z,449.00
2024-03-13T11:33:51.501Z,452.00
2024-03-13T11:34:50.772Z,447.00
2024-03-13T11:35:50.660Z,449.00
2024-03-13T11:36:50.590Z,438.00
2024-03-13T11:37:50.371Z,443.00
2024-03-13T11:38:50.755Z,441.00
2024-03-13T11:39:50.153Z,440.00
2024-03-13T11:40:50.165Z,437.00
2024-03-13T11:41:50.076Z,445.00
2024-03-13T11:42:49.895Z,448.00
2024-03-13T11:43:50.231Z,453.00
2024-03-13T11:44:49.583Z,443.00
2024-03-13T11:45:49.465Z,439.00
2024-03-13T11:46:49.432Z,446.00
2024-03-13T11:47:49.610Z,433.00
2024-03-13T11:48:49.381Z,462.00
2024-03-13T11:49:49.147Z,443.00
2024-03-13T11:50:49.010Z,438.00
2024-03-13T11:51:48.808Z,442.00
2024-03-13T11:52:48.751Z,447.00
2024-03-13T11:53:48.783Z,455.00
2024-03-13T11:54:48.588Z,442.00
2024-03-13T11:55:48.405Z,449.00
2024-03-13T11:56:48.339Z,456.00
2024-03-13T11:57:48.170Z,450.00
2024-03-13T11:58:48.251Z,456.00
2024-03-13T11:59:48.278Z,460.00
2024-03-13T12:00:47.835Z,467.00
2024-03-13T12:01:47.685Z,459.00
2024-03-13T12:02:47.680Z,457.00
2024-03-13T12:03:47.506Z,452.00
2024-03-13T12:04:47.676Z,455.00
2024-03-13T12:05:47.452Z,446.00
2024-03-13T12:06:48.589Z,442.00
2024-03-13T12:07:46.987Z,457.00
2024-03-13T12:08:47.240Z,457.00
2024-03-13T12:09:46.756Z,446.00
2024-03-13T12:10:46.660Z,441.00
2024-03-13T12:11:46.513Z,455.00
2024-03-13T12:12:46.374Z,455.00
2024-03-13T12:13:46.676Z,429.00
2024-03-13T12:14:46.562Z,442.00
2024-03-13T12:15:45.902Z,458.00
2024-03-13T12:16:45.842Z,448.00
2024-03-13T12:17:45.777Z,457.00
2024-03-13T12:18:45.790Z,455.00
2024-03-13T12:19:45.521Z,448.00
2024-03-13T12:20:45.468Z,448.00
2024-03-13T12:21:45.291Z,450.00
2024-03-13T12:22:45.142Z,455.00
2024-03-13T12:23:45.227Z,440.00
2024-03-13T12:24:44.868Z,446.00
2024-03-13T12:25:44.817Z,449.00
2024-03-13T12:26:44.692Z,444.00
2024-03-13T12:27:44.526Z,463.00
2024-03-13T12:28:44.726Z,461.00
2024-03-13T12:29:44.224Z,455.00
2024-03-13T12:30:44.065Z,451.00
2024-03-13T12:31:44.014Z,450.00
2024-03-13T12:32:43.885Z,452.00
2024-03-13T12:33:44.302Z,465.00
2024-03-13T12:34:43.510Z,448.00
2024-03-13T12:35:43.549Z,441.00
2024-03-13T12:36:43.447Z,454.00
2024-03-13T12:37:43.203Z,447.00
2024-03-13T12:38:43.111Z,447.00
2024-03-13T12:39:42.949Z,459.00
2024-03-13T12:40:42.936Z,444.00
2024-03-13T12:41:42.755Z,451.00
2024-03-13T12:42:42.578Z,453.00
2024-03-13T12:43:45.784Z,449.00
2024-03-13T12:44:42.296Z,438.00
2024-03-13T12:45:42.129Z,456.00
2024-03-13T12:46:41.957Z,438.00
2024-03-13T12:47:41.873Z,448.00
2024-03-13T12:48:41.705Z,434.00
2024-03-13T12:49:41.442Z,449.00
2024-03-13T12:50:41.284Z,454.00
2024-03-13T12:51:41.152Z,451.00
2024-03-13T12:52:40.891Z,449.00
2024-03-13T12:53:41.290Z,462.00
2024-03-13T12:54:40.543Z,460.00
2024-03-13T12:55:40.346Z,450.00
2024-03-13T12:56:40.208Z,451.00
2024-03-13T12:57:40.076Z,435.00
2024-03-13T12:58:39.961Z,457.00
2024-03-13T12:59:40.709Z,438.00
2024-03-13T13:00:39.557Z,452.00
2024-03-13T13:01:39.493Z,450.00
2024-03-13T13:02:39.277Z,448.00
2024-03-13T13:03:39.140Z,451.00
2024-03-13T13:04:38.976Z,441.00
2024-03-13T13:05:40.826Z,440.00
2024-03-13T13:06:38.717Z,440.00
2024-03-13T13:07:38.578Z,449.00
2024-03-13T13:08:38.499Z,438.00
2024-03-13T13:09:38.216Z,433.00
2024-03-13T13:10:38.054Z,445.00
2024-03-13T13:11:37.996Z,447.00
2024-03-13T13:12:37.879Z,434.00
2024-03-13T13:13:37.665Z,441.00
2024-03-13T13:14:37.477Z,453.00
2024-03-13T13:15:37.390Z,446.00
2024-03-13T13:16:37.181Z,438.00
2024-03-13T13:17:37.069Z,442.00
2024-03-13T13:18:37.083Z,443.00
2024-03-13T13:19:36.718Z,449.00
2024-03-13T13:20:36.572Z,472.00
2024-03-13T13:21:36.459Z,459.00
2024-03-13T13:22:36.336Z,462.00
2024-03-13T13:23:36.237Z,446.00
2024-03-13T13:24:35.982Z,468.00
2024-03-13T13:25:35.886Z,456.00
2024-03-13T13:26:35.780Z,452.00
2024-03-13T13:27:35.546Z,449.00
2024-03-13T13:28:35.589Z,451.00
2024-03-13T13:29:35.263Z,447.00
2024-03-13T13:30:35.125Z,445.00
2024-03-13T13:31:34.956Z,443.00
2024-03-13T13:32:34.842Z,449.00